Time;durP1;ratioP1;P1;durP2;ratioP2;P2;SDS_P1;SDS_P2;PMS_P1;PMS_P2;Temp;Humidity;BMP_temperature;BMP_pressure;BME280_temperature;BME280_humidity;BME280_pressure;Samples;Min_cycle;Max_cycle;Signal;HPM_P1;HPM_P2
2022/12/14 00:02:41;;;;;;;0.20;0.20;;;;;;;-5.90;100.00;95269.88;5054825;28;21038;-71
2022/12/14 00:05:28;;;;;;;0.20;0.20;;;;;;;-5.95;100.00;95261.81;5063646;28;20033;-71
2022/12/14 00:08:15;;;;;;;0.20;0.20;;;;;;;-5.88;100.00;95258.28;5053513;28;20706;-71
2022/12/14 00:11:01;;;;;;;0.20;0.20;;;;;;;-5.87;100.00;95261.72;5053862;28;20071;-72
2022/12/14 00:13:54;;;;;;;0.10;0.10;;;;;;;-5.86;100.00;95262.50;5036774;28;20033;-72
2022/12/14 00:16:40;;;;;;;0.20;0.20;;;;;;;-5.93;100.00;95255.44;5038051;28;20217;-72
2022/12/14 00:19:26;;;;;;;0.20;0.20;;;;;;;-5.92;100.00;95254.44;5036599;28;20349;-72
2022/12/14 00:22:13;;;;;;;0.20;0.20;;;;;;;-5.92;100.00;95246.63;5038145;28;20504;-72
2022/12/14 00:24:59;;;;;;;0.10;0.10;;;;;;;-5.84;100.00;95237.88;5051880;28;20241;-72
2022/12/14 00:27:45;;;;;;;0.20;0.20;;;;;;;-5.83;100.00;95223.09;5053939;28;20040;-73
2022/12/14 00:30:31;;;;;;;0.20;0.20;;;;;;;-5.73;100.00;95240.09;5057931;28;20118;-72
2022/12/14 00:33:17;;;;;;;0.20;0.20;;;;;;;-5.68;100.00;95244.75;5072388;28;20389;-72
2022/12/14 00:36:05;;;;;;;0.20;0.20;;;;;;;-5.61;100.00;95243.06;5059817;28;20043;-72
2022/12/14 00:38:51;;;;;;;0.20;0.20;;;;;;;-5.62;100.00;95244.03;5071648;28;20094;-72
2022/12/14 00:41:37;;;;;;;0.20;0.20;;;;;;;-5.75;100.00;95228.22;5074549;28;20071;-72
2022/12/14 00:44:23;;;;;;;0.20;0.20;;;;;;;-5.66;100.00;95232.38;5070764;28;20031;-72
2022/12/14 00:47:09;;;;;;;0.20;0.20;;;;;;;-5.58;100.00;95234.91;5073203;28;20081;-72
2022/12/14 00:49:55;;;;;;;0.17;0.17;;;;;;;-5.64;100.00;95235.59;5073121;28;20042;-71
2022/12/14 00:52:41;;;;;;;0.20;0.20;;;;;;;-5.65;100.00;95240.00;5073752;28;20051;-71
2022/12/14 00:55:26;;;;;;;0.20;0.20;;;;;;;-5.66;100.00;95230.56;5070448;28;20068;-73
2022/12/14 00:58:14;;;;;;;0.20;0.20;;;;;;;-5.67;100.00;95228.97;5076346;27;20092;-70
2022/12/14 01:01:06;;;;;;;0.20;0.20;;;;;;;-5.70;100.00;95225.88;5065645;28;20037;-69
2022/12/14 01:04:15;;;;;;;0.20;0.20;;;;;;;-5.66;100.00;95235.78;5050483;28;20463;-70
2022/12/14 01:06:58;;;;;;;0.20;0.20;;;;;;;-5.68;100.00;95229.13;5051612;28;20037;-70
2022/12/14 01:09:43;;;;;;;0.20;0.20;;;;;;;-5.66;100.00;95237.59;5052662;28;20396;-71
2022/12/14 01:12:29;;;;;;;0.20;0.20;;;;;;;-5.68;100.00;95234.31;5051642;28;20483;-73
2022/12/14 01:15:15;;;;;;;0.20;0.20;;;;;;;-5.71;100.00;95239.91;5040918;28;20098;-74
2022/12/14 01:18:01;;;;;;;0.20;0.20;;;;;;;-5.61;100.00;95232.63;5041567;28;20321;-71
2022/12/14 01:20:47;;;;;;;0.20;0.20;;;;;;;-5.58;100.00;95234.91;5052185;28;20042;-70
2022/12/14 01:23:33;;;;;;;0.20;0.20;;;;;;;-5.70;100.00;95233.69;5050940;28;20496;-72
2022/12/14 01:26:20;;;;;;;0.20;0.20;;;;;;;-5.69;100.00;95227.50;5052046;28;20786;-73
2022/12/14 01:29:07;;;;;;;0.20;0.20;;;;;;;-5.65;100.00;95232.19;5051670;28;20044;-72
2022/12/14 01:31:52;;;;;;;0.20;0.20;;;;;;;-5.67;100.00;95213.31;5066351;28;20113;-72
2022/12/14 01:34:38;;;;;;;0.20;0.20;;;;;;;-5.69;100.00;95196.22;5057102;28;20205;-73
2022/12/14 01:37:25;;;;;;;0.20;0.20;;;;;;;-5.65;100.00;95202.72;5072207;28;20444;-72
2022/12/14 01:40:11;;;;;;;0.20;0.20;;;;;;;-5.67;100.00;95194.28;5073956;27;20043;-70
2022/12/14 01:42:57;;;;;;;0.20;0.20;;;;;;;-5.79;100.00;95203.50;5073832;28;20508;-69
2022/12/14 01:45:42;;;;;;;0.20;0.20;;;;;;;-5.70;100.00;95199.81;5070485;28;20039;-73
2022/12/14 01:48:28;;;;;;;0.20;0.20;;;;;;;-5.66;100.00;95191.47;5068440;28;20487;-73
2022/12/14 01:51:14;;;;;;;0.20;0.20;;;;;;;-5.68;100.00;95179.59;5071449;28;20054;-73
2022/12/14 01:54:05;;;;;;;0.20;0.20;;;;;;;-5.70;100.00;95171.97;5069956;28;20574;-70
2022/12/14 01:56:52;;;;;;;0.20;0.20;;;;;;;-5.69;100.00;95165.75;5072645;28;20055;-70
2022/12/14 01:59:42;;;;;;;0.20;0.20;;;;;;;-5.74;100.00;95162.91;5069333;28;20040;-72
2022/12/14 02:02:28;;;;;;;0.20;0.20;;;;;;;-5.70;100.00;95163.34;5070637;28;20469;-73
2022/12/14 02:05:17;;;;;;;0.20;0.20;;;;;;;-5.67;100.00;95157.78;5069620;28;20039;-73
2022/12/14 02:08:04;;;;;;;0.20;0.20;;;;;;;-5.69;100.00;95144.09;5072829;28;20048;-72
2022/12/14 02:10:52;;;;;;;0.20;0.20;;;;;;;-5.74;100.00;95138.63;5070016;28;20040;-70
2022/12/14 02:13:40;;;;;;;0.20;0.20;;;;;;;-5.68;100.00;95140.50;5070184;28;20385;-70
2022/12/14 02:16:26;;;;;;;0.20;0.20;;;;;;;-5.73;100.00;95135.03;5071475;28;20036;-73
2022/12/14 02:19:12;;;;;;;0.20;0.20;;;;;;;-5.61;100.00;95131.78;5059950;28;20123;-73
2022/12/14 02:22:17;;;;;;;0.20;0.20;;;;;;;-5.66;100.00;95128.13;5073124;28;20694;-73
2022/12/14 02:25:36;;;;;;;0.20;0.20;;;;;;;-5.59;100.00;95123.00;5073496;28;20036;-70
2022/12/14 02:28:59;;;;;;;0.20;0.20;;;;;;;-5.63;100.00;95112.91;5071234;28;20047;-72
2022/12/14 02:32:06;;;;;;;0.20;0.20;;;;;;;-5.52;100.00;95096.03;5068862;28;20101;-71
2022/12/14 02:35:20;;;;;;;0.20;0.20;;;;;;;-5.54;100.00;95100.59;5055579;28;20039;-72
2022/12/14 02:38:21;;;;;;;0.20;0.20;;;;;;;-5.62;100.00;95100.69;5072022;28;20297;-70
2022/12/14 02:41:22;;;;;;;0.20;0.20;;;;;;;-5.58;100.00;95088.91;5057971;28;20059;-71
2022/12/14 02:44:29;;;;;;;0.20;0.20;;;;;;;-5.58;100.00;95077.69;5081138;27;20646;-71
2022/12/14 02:47:25;;;;;;;0.20;0.20;;;;;;;-5.62;100.00;95066.81;5072656;28;20185;-71
2022/12/14 02:50:37;;;;;;;0.20;0.20;;;;;;;-5.69;100.00;95064.09;5071425;28;20142;-71
2022/12/14 02:53:30;;;;;;;0.10;0.10;;;;;;;-5.69;100.00;95061.50;5070452;28;20534;-72
2022/12/14 02:56:24;;;;;;;0.20;0.20;;;;;;;-5.68;100.00;95057.09;5070877;28;20609;-69
2022/12/14 02:59:10;;;;;;;0.20;0.20;;;;;;;-5.72;100.00;95059.28;5070083;28;20393;-71
2022/12/14 03:02:01;;;;;;;0.20;0.20;;;;;;;-5.75;100.00;95062.25;5072871;28;20288;-69
2022/12/14 03:04:48;;;;;;;0.20;0.20;;;;;;;-5.75;100.00;95066.66;5069941;28;20031;-72
2022/12/14 03:07:40;;;;;;;0.20;0.20;;;;;;;-5.81;100.00;95046.53;5068869;28;20552;-71
2022/12/14 03:10:34;;;;;;;0.20;0.20;;;;;;;-5.72;100.00;95050.66;5084736;27;20155;-70
2022/12/14 03:13:26;;;;;;;0.20;0.20;;;;;;;-5.68;100.00;95054.50;5063308;28;20121;-72
2022/12/14 03:16:15;;;;;;;0.20;0.20;;;;;;;-5.66;100.00;95042.91;5064158;28;20510;-71
2022/12/14 03:19:25;;;;;;;0.20;0.20;;;;;;;-5.56;100.00;95049.63;5068789;28;20398;-71
2022/12/14 03:22:19;;;;;;;0.20;0.20;;;;;;;-5.50;100.00;95038.47;5070551;28;20059;-72
2022/12/14 03:25:15;;;;;;;0.20;0.20;;;;;;;-5.65;100.00;95026.28;5068871;28;20024;-69
2022/12/14 03:28:07;;;;;;;0.20;0.20;;;;;;;-5.55;100.00;95038.22;5069529;28;20499;-71
2022/12/14 03:31:04;;;;;;;0.20;0.20;;;;;;;-5.46;100.00;95026.69;5070201;28;20070;-70
2022/12/14 03:33:54;;;;;;;0.20;0.20;;;;;;;-5.47;100.00;95038.09;5067419;28;20039;-69
2022/12/14 03:36:48;;;;;;;0.20;0.20;;;;;;;-5.55;100.00;95031.19;5062343;28;20330;-72
2022/12/14 03:39:36;;;;;;;0.20;0.20;;;;;;;-5.47;100.00;95041.50;5068195;28;20036;-71
2022/12/14 03:42:37;;;;;;;0.20;0.20;;;;;;;-5.38;100.00;95029.16;5071693;28;20115;-72
2022/12/14 03:45:51;;;;;;;0.20;0.20;;;;;;;-5.48;100.00;95032.09;5069276;28;20044;-71
2022/12/14 03:48:49;;;;;;;0.20;0.20;;;;;;;-5.45;100.00;95023.88;5068522;28;20040;-71
2022/12/14 03:51:41;;;;;;;0.20;0.20;;;;;;;-5.39;100.00;95028.38;5072198;28;20036;-69
2022/12/14 03:54:29;;;;;;;0.20;0.20;;;;;;;-5.54;100.00;95024.19;5066799;28;20162;-72
2022/12/14 03:57:34;;;;;;;0.20;0.20;;;;;;;-5.54;100.00;95019.78;5058919;28;20058;-70
2022/12/14 04:00:22;;;;;;;0.20;0.20;;;;;;;-5.55;100.00;95017.34;5070839;28;20040;-71
2022/12/14 04:03:31;;;;;;;0.10;0.10;;;;;;;-5.48;100.00;95016.44;5072448;28;20457;-70
2022/12/14 04:06:26;;;;;;;0.20;0.20;;;;;;;-5.40;100.00;95024.13;5070049;28;20364;-69
2022/12/14 04:09:24;;;;;;;0.20;0.20;;;;;;;-5.37;100.00;95013.38;5068686;28;20519;-71
2022/12/14 04:19:01;;;;;;;0.20;0.20;;;;;;;-5.37;100.00;95018.56;5070196;28;20024;-71
2022/12/14 04:21:54;;;;;;;0.20;0.20;;;;;;;-5.37;100.00;95020.34;5070733;28;20418;-71
2022/12/14 04:31:27;;;;;;;0.10;0.10;;;;;;;-5.26;100.00;95024.28;5072870;28;21041;-71
2022/12/14 04:34:16;;;;;;;0.20;0.20;;;;;;;-5.22;100.00;95015.88;5075107;28;20032;-71
2022/12/14 04:37:08;;;;;;;0.20;0.20;;;;;;;-5.26;100.00;95008.63;5055434;28;20234;-70
2022/12/14 04:40:11;;;;;;;0.20;0.20;;;;;;;-5.35;100.00;95005.34;5073015;28;20032;-71
2022/12/14 04:43:02;;;;;;;0.20;0.20;;;;;;;-5.42;100.00;95010.50;5071959;28;20055;-70
2022/12/14 04:45:55;;;;;;;0.20;0.20;;;;;;;-5.48;100.00;95015.63;5073577;28;20725;-71
2022/12/14 04:48:53;;;;;;;0.20;0.20;;;;;;;-5.54;100.00;95019.78;5075498;28;20040;-68
2022/12/14 04:51:52;;;;;;;0.20;0.20;;;;;;;-5.56;100.00;95013.94;5071848;28;20581;-68
2022/12/14 04:54:54;;;;;;;0.20;0.20;;;;;;;-5.58;100.00;95015.94;5071059;28;21078;-69
2022/12/14 04:57:48;;;;;;;0.20;0.20;;;;;;;-5.63;100.00;95023.47;5055724;28;20115;-71
2022/12/14 05:00:39;;;;;;;0.10;0.10;;;;;;;-5.64;100.00;95016.66;5073855;28;20039;-71
2022/12/14 05:03:47;;;;;;;0.20;0.20;;;;;;;-5.55;100.00;95019.97;5072696;28;20481;-72
2022/12/14 05:06:54;;;;;;;0.20;0.20;;;;;;;-5.64;100.00;95016.66;5072207;28;20492;-72
2022/12/14 05:09:58;;;;;;;0.20;0.20;;;;;;;-5.59;100.00;95003.91;5073489;28;20039;-71
2022/12/14 05:12:44;;;;;;;0.20;0.20;;;;;;;-5.69;100.00;94982.50;5071825;28;20347;-72
2022/12/14 05:15:35;;;;;;;0.20;0.20;;;;;;;-5.59;100.00;94990.88;5073649;28;20122;-69
2022/12/14 05:18:22;;;;;;;0.20;0.20;;;;;;;-5.69;100.00;94995.53;5064211;28;20565;-71
2022/12/14 05:21:45;;;;;;;0.20;0.20;;;;;;;-5.60;100.00;94981.44;5075093;28;20437;-70
2022/12/14 05:24:18;;;;;;;0.20;0.20;;;;;;;-5.69;100.00;94985.13;5071698;28;20044;-70
2022/12/14 05:27:04;;;;;;;0.20;0.20;;;;;;;-5.75;100.00;94978.88;5075295;28;20320;-69
2022/12/14 05:29:51;;;;;;;0.20;0.20;;;;;;;-5.71;100.00;94981.91;5071752;28;20105;-71
2022/12/14 05:32:38;;;;;;;0.20;0.20;;;;;;;-5.61;100.00;94970.16;5072485;28;20143;-72
2022/12/14 05:35:24;;;;;;;0.20;0.20;;;;;;;-5.71;100.00;94955.84;5071984;28;20036;-72
2022/12/14 05:38:12;;;;;;;0.20;0.20;;;;;;;-5.58;100.00;94969.00;5074823;28;20032;-72
2022/12/14 05:40:57;;;;;;;0.20;0.20;;;;;;;-5.56;100.00;94966.22;5076212;28;20043;-71
2022/12/14 05:43:43;;;;;;;0.20;0.20;;;;;;;-5.42;100.00;94962.75;5071696;28;20558;-73
2022/12/14 05:46:29;;;;;;;0.20;0.20;;;;;;;-5.43;100.00;94961.16;5074218;28;20427;-69
2022/12/14 05:49:15;;;;;;;0.20;0.20;;;;;;;-5.60;100.00;94960.59;5072621;28;20067;-71
2022/12/14 05:52:01;;;;;;;0.20;0.20;;;;;;;-5.68;100.00;94945.88;5071622;28;20134;-70
2022/12/14 05:54:47;;;;;;;0.20;0.20;;;;;;;-5.49;100.00;94947.03;5072103;28;20052;-71
2022/12/14 05:57:32;;;;;;;0.20;0.20;;;;;;;-5.54;100.00;94938.97;5072551;28;20295;-71
2022/12/14 06:00:18;;;;;;;0.20;0.20;;;;;;;-5.57;100.00;94925.50;5056605;28;20044;-71
2022/12/14 06:03:05;;;;;;;0.20;0.20;;;;;;;-5.46;100.00;94927.59;5051076;28;20142;-71
2022/12/14 06:05:51;;;;;;;0.20;0.20;;;;;;;-5.45;100.00;94927.41;5049498;28;20024;-71
2022/12/14 06:08:39;;;;;;;0.20;0.20;;;;;;;-5.41;100.00;94922.66;5052065;28;20036;-72
2022/12/14 06:11:25;;;;;;;0.20;0.20;;;;;;;-5.42;100.00;94913.22;5051806;28;20563;-72
2022/12/14 06:14:12;;;;;;;0.20;0.20;;;;;;;-5.54;100.00;94899.84;5051880;28;20032;-72
2022/12/14 06:16:57;;;;;;;0.20;0.20;;;;;;;-5.44;100.00;94892.56;5055016;28;20041;-69
2022/12/14 06:19:43;;;;;;;0.20;0.20;;;;;;;-5.39;100.00;94899.78;5052347;28;20073;-70
2022/12/14 06:22:29;;;;;;;0.20;0.20;;;;;;;-5.30;100.00;94898.66;5052158;28;20562;-71
2022/12/14 06:25:17;;;;;;;0.20;0.20;;;;;;;-5.39;100.00;94892.78;5054294;28;20145;-72
2022/12/14 06:28:03;;;;;;;0.20;0.20;;;;;;;-5.49;100.00;94892.28;5053158;28;20486;-71
2022/12/14 06:30:49;;;;;;;0.20;0.20;;;;;;;-5.41;100.00;94886.16;5059130;28;20058;-70
2022/12/14 06:33:35;;;;;;;0.20;0.20;;;;;;;-5.42;100.00;94885.34;5060332;28;20393;-70
2022/12/14 06:36:27;;;;;;;0.20;0.20;;;;;;;-5.52;100.00;94890.06;5070586;28;20125;-72
2022/12/14 06:39:15;;;;;;;0.20;0.20;;;;;;;-5.43;100.00;94883.72;5059205;28;20055;-73
2022/12/14 06:42:01;;;;;;;0.20;0.20;;;;;;;-5.42;100.00;94874.91;5074332;28;20032;-70
2022/12/14 06:44:49;;;;;;;0.17;0.17;;;;;;;-5.35;100.00;94881.00;5072879;28;20036;-70
2022/12/14 06:47:35;;;;;;;0.15;0.15;;;;;;;-5.49;100.00;94889.69;5070523;28;20044;-71
2022/12/14 06:50:21;;;;;;;0.20;0.20;;;;;;;-5.38;100.00;94881.34;5059413;28;20293;-73
2022/12/14 06:53:12;;;;;;;0.20;0.20;;;;;;;-5.40;100.00;94888.56;5069785;28;20047;-71
2022/12/14 06:56:12;;;;;;;0.20;0.20;;;;;;;-5.42;100.00;94879.31;5073398;28;20114;-71
2022/12/14 06:58:58;;;;;;;0.20;0.20;;;;;;;-5.46;100.00;94889.31;5071721;27;20039;-73
2022/12/14 07:01:44;;;;;;;0.20;0.20;;;;;;;-5.44;100.00;94887.34;5057714;28;20313;-71
2022/12/14 07:04:30;;;;;;;0.20;0.20;;;;;;;-5.50;100.00;94885.47;5052001;28;20305;-73
2022/12/14 07:07:16;;;;;;;0.17;0.17;;;;;;;-5.38;100.00;94888.38;5051559;28;21963;-73
2022/12/14 07:10:03;;;;;;;0.20;0.20;;;;;;;-5.41;100.00;94879.13;5052502;28;20068;-73
2022/12/14 07:12:49;;;;;;;0.20;0.20;;;;;;;-5.49;100.00;94873.25;5046647;28;20127;-72
2022/12/14 07:15:35;;;;;;;0.20;0.20;;;;;;;-5.62;100.00;94887.75;5049919;28;20028;-70
2022/12/14 07:18:21;;;;;;;0.20;0.20;;;;;;;-5.59;100.00;94872.75;5050000;28;20035;-72
2022/12/14 07:21:09;;;;;;;0.20;0.20;;;;;;;-5.65;100.00;94875.13;5053619;28;20052;-72
2022/12/14 07:23:59;;;;;;;0.20;0.20;;;;;;;-5.66;100.00;94885.72;5053922;28;20215;-72
2022/12/14 07:26:45;;;;;;;0.20;0.20;;;;;;;-5.62;100.00;94886.97;5041597;28;20359;-72
2022/12/14 07:29:31;;;;;;;0.20;0.20;;;;;;;-5.61;100.00;94891.16;5052093;28;20118;-72
2022/12/14 07:32:20;;;;;;;0.10;0.10;;;;;;;-5.65;100.00;94893.34;5057107;28;20048;-71
2022/12/14 07:35:06;;;;;;;0.20;0.20;;;;;;;-5.72;100.00;94889.88;5073533;28;20528;-72
2022/12/14 07:37:52;;;;;;;0.20;0.20;;;;;;;-5.66;100.00;94898.75;5073195;28;20597;-73
2022/12/14 07:40:38;;;;;;;0.20;0.20;;;;;;;-5.54;100.00;94905.06;5072919;28;20043;-71
2022/12/14 07:43:24;;;;;;;0.25;0.25;;;;;;;-5.53;100.00;94909.28;5054790;28;20036;-73
2022/12/14 07:46:13;;;;;;;0.20;0.20;;;;;;;-5.28;100.00;94919.38;5073933;28;20632;-73
2022/12/14 07:49:00;;;;;;;0.20;0.20;;;;;;;-5.17;100.00;94926.66;5073196;28;20913;-73
2022/12/14 07:51:46;;;;;;;0.20;0.20;;;;;;;-5.21;100.00;94928.84;5057553;28;20118;-73
2022/12/14 07:54:32;;;;;;;0.20;0.20;;;;;;;-5.14;100.00;94919.25;5070164;28;20051;-73
2022/12/14 07:57:18;;;;;;;0.20;0.20;;;;;;;-4.97;100.00;94929.44;5074787;27;20379;-73
2022/12/14 08:00:04;;;;;;;0.20;0.20;;;;;;;-4.91;100.00;94924.25;5078271;28;20032;-73
2022/12/14 08:02:57;;;;;;;0.20;0.20;;;;;;;-4.85;100.00;94920.88;5076928;28;20060;-72
2022/12/14 08:05:43;;;;;;;0.20;0.20;;;;;;;-4.90;100.00;94920.66;5075681;28;20632;-71
2022/12/14 08:08:28;;;;;;;0.20;0.20;;;;;;;-4.80;100.00;94922.94;5077150;28;20683;-72
2022/12/14 08:11:16;;;;;;;0.20;0.20;;;;;;;-4.97;100.00;94913.78;5077254;27;20389;-70
2022/12/14 08:14:05;;;;;;;0.20;0.20;;;;;;;-4.81;100.00;94921.31;5072368;28;20044;-70
2022/12/14 08:16:51;;;;;;;0.20;0.20;;;;;;;-4.87;100.00;94917.66;5077176;28;20032;-70
2022/12/14 08:19:37;;;;;;;0.10;0.10;;;;;;;-4.73;100.00;94908.13;5076788;28;20067;-70
2022/12/14 08:22:23;;;;;;;0.20;0.20;;;;;;;-4.77;100.00;94915.50;5073424;28;20075;-73
2022/12/14 08:25:09;;;;;;;0.20;0.20;;;;;;;-4.78;100.00;94913.09;5074159;28;20193;-71
2022/12/14 08:27:55;;;;;;;0.20;0.20;;;;;;;-4.66;100.00;94910.78;5077497;27;20155;-72
2022/12/14 08:30:41;;;;;;;0.20;0.20;;;;;;;-4.82;100.00;94917.09;5071006;28;20467;-71
2022/12/14 08:33:27;;;;;;;0.20;0.20;;;;;;;-4.83;100.00;94912.84;5055170;28;20051;-73
2022/12/14 08:36:16;;;;;;;0.20;0.20;;;;;;;-4.76;100.00;94911.91;5054781;28;20215;-71
2022/12/14 08:39:05;;;;;;;0.20;0.20;;;;;;;-4.61;100.00;94914.41;5055387;28;20180;-73
2022/12/14 08:41:51;;;;;;;0.20;0.20;;;;;;;-4.52;100.00;94915.06;5056697;28;20127;-73
2022/12/14 08:44:37;;;;;;;0.20;0.20;;;;;;;-4.53;100.00;94910.84;5055416;28;20110;-74
2022/12/14 08:47:23;;;;;;;0.20;0.20;;;;;;;-4.52;100.00;94920.28;5053236;28;20528;-73
2022/12/14 08:50:09;;;;;;;0.20;0.20;;;;;;;-4.32;100.00;94913.34;5056239;28;20059;-73
2022/12/14 08:52:55;;;;;;;0.20;0.20;;;;;;;-4.18;100.00;94913.44;5048998;28;20392;-73
2022/12/14 08:55:41;;;;;;;0.20;0.20;;;;;;;-4.10;100.00;94921.09;5041410;28;20041;-72
2022/12/14 08:58:27;;;;;;;0.20;0.20;;;;;;;-4.18;100.00;94924.69;5057249;28;20512;-73
2022/12/14 09:01:22;;;;;;;0.20;0.20;;;;;;;-3.93;100.00;94932.81;5051073;28;20047;-74
2022/12/14 09:04:08;;;;;;;0.20;0.20;;;;;;;-4.04;100.00;94936.00;5074000;28;20027;-73
2022/12/14 09:06:55;;;;;;;0.20;0.20;;;;;;;-3.95;100.00;94940.06;5074130;27;20157;-74
2022/12/14 09:09:41;;;;;;;0.20;0.20;;;;;;;-3.78;100.00;94941.31;5072735;27;20138;-74
2022/12/14 09:12:27;;;;;;;0.25;0.25;;;;;;;-3.96;100.00;94928.78;5075380;28;20186;-74
2022/12/14 09:15:13;;;;;;;0.20;0.20;;;;;;;-3.87;100.00;94932.03;5074471;28;20079;-72
2022/12/14 09:17:59;;;;;;;0.20;0.20;;;;;;;-3.70;100.00;94943.75;5073414;28;20031;-71
2022/12/14 09:20:45;;;;;;;0.20;0.20;;;;;;;-3.42;100.00;94945.44;5073305;28;20337;-74
2022/12/14 09:23:32;;;;;;;0.20;0.20;;;;;;;-3.32;100.00;94939.81;5070406;28;20606;-74
2022/12/14 09:26:20;;;;;;;0.20;0.20;;;;;;;-3.35;100.00;94946.22;5075329;28;20469;-74
2022/12/14 09:29:06;;;;;;;0.30;0.30;;;;;;;-3.32;100.00;94943.22;5073855;28;20491;-73
2022/12/14 09:31:53;;;;;;;0.20;0.20;;;;;;;-3.19;100.00;94940.66;5061091;28;20054;-74
2022/12/14 09:34:39;;;;;;;0.20;0.20;;;;;;;-2.97;100.00;94946.47;5051657;28;20059;-72
2022/12/14 09:37:25;;;;;;;0.20;0.20;;;;;;;-3.05;100.00;94946.66;5051958;28;20549;-74
2022/12/14 09:40:12;;;;;;;0.20;0.20;;;;;;;-3.19;100.00;94945.03;5051687;28;20851;-73
2022/12/14 09:43:06;;;;;;;0.30;0.30;;;;;;;-3.27;100.00;94940.81;5053952;28;20847;-71
2022/12/14 09:46:00;;;;;;;0.20;0.20;;;;;;;-3.13;100.00;94939.00;5030414;28;20102;-73
2022/12/14 09:48:48;;;;;;;0.20;0.20;;;;;;;-3.13;100.00;94933.78;5053720;28;20275;-73
2022/12/14 09:51:35;;;;;;;0.20;0.20;;;;;;;-3.37;100.00;94927.31;5039224;28;20445;-74
2022/12/14 09:54:26;;;;;;;0.20;0.20;;;;;;;-3.06;100.00;94947.69;5037285;28;20142;-74
2022/12/14 09:57:28;;;;;;;0.20;0.20;;;;;;;-2.84;100.00;94943.88;5056264;28;20551;-74
2022/12/14 10:00:17;;;;;;;0.20;0.20;;;;;;;-2.82;100.00;94946.28;5053723;28;20431;-73
2022/12/14 10:03:26;;;;;;;0.20;0.20;;;;;;;-2.86;100.00;94945.09;5074845;28;20185;-75
2022/12/14 10:06:24;;;;;;;0.20;0.20;;;;;;;-2.59;100.00;94925.69;5075064;28;20047;-74
2022/12/14 10:09:47;;;;;;;0.20;0.20;;;;;;;-2.77;100.00;94928.16;5074563;28;20039;-74
2022/12/14 10:13:12;;;;;;;0.22;0.22;;;;;;;-2.55;100.00;94931.34;5037809;28;20043;-74
2022/12/14 10:16:04;;;;;;;0.20;0.20;;;;;;;-2.91;100.00;94939.63;5041673;28;20247;-73
2022/12/14 10:19:20;;;;;;;0.20;0.20;;;;;;;-2.96;100.00;94926.34;5072260;28;20028;-72
2022/12/14 10:22:17;;;;;;;0.20;0.20;;;;;;;-2.68;100.00;94924.31;5075698;28;20150;-72
2022/12/14 10:25:10;;;;;;;0.20;0.20;;;;;;;-2.56;100.00;94920.06;5064766;28;20371;-74
2022/12/14 10:28:01;;;;;;;0.20;0.20;;;;;;;-2.34;100.00;94925.03;5076293;28;20051;-74
2022/12/14 10:30:51;;;;;;;0.20;0.20;;;;;;;-2.29;100.00;94930.47;5070529;27;20048;-74
2022/12/14 10:33:42;;;;;;;0.20;0.20;;;;;;;-2.31;100.00;94927.28;5024595;28;20384;-74
2022/12/14 10:36:43;;;;;;;0.20;0.20;;;;;;;-2.06;100.00;94928.19;5052294;28;20048;-74
2022/12/14 10:39:29;;;;;;;0.20;0.20;;;;;;;-1.70;100.00;94911.91;5052638;28;20151;-74
2022/12/14 10:42:30;;;;;;;0.20;0.20;;;;;;;-1.46;100.00;94910.38;5052791;28;20036;-73
2022/12/14 10:45:22;;;;;;;0.20;0.20;;;;;;;-1.53;100.00;94908.81;5053380;28;20879;-71
2022/12/14 10:48:11;;;;;;;;;;;;;;;-2.27;100.00;94902.25;5053685;28;20512;-74
2022/12/14 10:51:13;;;;;;;0.20;0.20;;;;;;;-2.09;100.00;94901.59;5050937;28;19920;-74
2022/12/14 10:54:08;;;;;;;;;;;;;;;-1.89;100.00;94907.56;5051295;28;20446;-74
2022/12/14 10:56:54;;;;;;;0.20;0.20;;;;;;;-1.77;100.00;94905.09;5046306;28;19996;-73
2022/12/14 10:59:40;;;;;;;0.15;0.15;;;;;;;-1.62;100.00;94903.00;5051815;28;20037;-72
2022/12/14 11:02:28;;;;;;;0.20;0.20;;;;;;;-1.49;100.00;94892.41;5050379;28;20040;-74
2022/12/14 11:05:38;;;;;;;0.20;0.20;;;;;;;-1.50;100.00;94898.69;5049525;28;20919;-72
2022/12/14 11:08:45;;;;;;;0.20;0.20;;;;;;;-1.38;100.00;94900.63;5054257;28;20477;-73
2022/12/14 11:11:34;;;;;;;0.20;0.20;;;;;;;-0.85;100.00;94911.56;5039913;28;20897;-73
2022/12/14 11:14:21;;;;;;;0.25;0.25;;;;;;;0.33;100.00;94907.91;5054188;28;20040;-74
2022/12/14 11:17:32;;;;;;;0.20;0.20;;;;;;;1.13;100.00;94899.66;5053619;28;20107;-74
2022/12/14 11:20:24;;;;;;;0.30;0.30;;;;;;;2.18;100.00;94895.13;5050508;28;20551;-71
2022/12/14 11:23:27;;;;;;;0.20;0.20;;;;;;;3.42;96.69;94880.34;5051682;28;20360;-72
2022/12/14 11:26:46;;;;;;;0.20;0.20;;;;;;;2.31;95.07;94882.69;5052364;28;20347;-74
2022/12/14 11:29:36;;;;;;;0.22;0.22;;;;;;;2.25;99.04;94879.13;5023621;28;20070;-74
2022/12/14 11:32:24;;;;;;;0.20;0.20;;;;;;;2.20;99.99;94877.22;5039116;28;20109;-74
2022/12/14 11:35:16;;;;;;;0.20;0.20;;;;;;;2.90;100.00;94884.03;5069460;28;20479;-73
2022/12/14 11:38:14;;;;;;;0.25;0.25;;;;;;;2.99;100.00;94879.16;4864682;28;10000531;-74
2022/12/14 11:41:02;;;;;;;0.20;0.20;;;;;;;3.47;90.45;94875.94;4719187;28;9999771;-73
2022/12/14 11:44:03;;;;;;;0.20;0.20;;;;;;;4.67;71.94;94868.16;5069068;28;20054;-75
2022/12/14 11:47:01;;;;;;;0.20;0.20;;;;;;;6.49;71.35;94873.13;5069453;28;20044;-75
2022/12/14 11:49:50;;;;;;;0.20;0.20;;;;;;;6.90;57.74;94868.72;5056987;28;20525;-74
2022/12/14 11:52:36;;;;;;;0.30;0.30;;;;;;;8.68;54.21;94866.84;5071232;28;20204;-75
2022/12/14 11:55:22;;;;;;;0.30;0.30;;;;;;;8.14;45.67;94867.56;5069808;28;20139;-75
2022/12/14 11:58:20;;;;;;;0.30;0.30;;;;;;;9.17;48.70;94866.81;5064905;28;20570;-75
2022/12/14 12:01:16;;;;;;;0.20;0.20;;;;;;;7.40;46.79;94869.84;5054083;28;20361;-75
2022/12/14 12:04:02;;;;;;;0.20;0.20;;;;;;;5.98;52.39;94872.91;5062258;28;20756;-75
2022/12/14 12:06:48;;;;;;;0.20;0.20;;;;;;;6.21;66.56;94874.34;5057155;28;20744;-74
2022/12/14 12:09:40;;;;;;;0.20;0.20;;;;;;;7.07;59.53;94873.00;5067924;28;20050;-74
2022/12/14 12:12:26;;;;;;;;;;;;;;;9.08;46.90;94860.47;5059207;28;20387;-76
2022/12/14 12:15:17;;;;;;;0.20;0.20;;;;;;;10.72;46.92;94850.59;5070893;28;20019;-76
2022/12/14 12:18:12;;;;;;;0.30;0.30;;;;;;;8.35;46.43;94858.47;5070279;28;20028;-75
2022/12/14 12:21:04;;;;;;;0.28;0.28;;;;;;;8.63;47.59;94849.81;5070449;28;20028;-76
2022/12/14 12:24:05;;;;;;;0.17;0.17;;;;;;;7.31;50.02;94846.66;5069295;28;20155;-75
2022/12/14 12:26:55;;;;;;;0.20;0.20;;;;;;;6.87;57.11;94852.50;5058933;28;20552;-73
2022/12/14 12:29:53;;;;;;;0.20;0.20;;;;;;;6.35;58.25;94854.22;5068421;28;20032;-73
2022/12/14 12:32:46;;;;;;;0.20;0.20;;;;;;;6.00;60.72;94857.53;5019976;28;20047;-76
2022/12/14 12:35:45;;;;;;;0.20;0.20;;;;;;;5.24;62.64;94855.16;5045645;28;20030;-76
2022/12/14 12:38:44;;;;;;;0.20;0.20;;;;;;;4.81;72.82;94857.97;5047029;28;20243;-75
2022/12/14 12:41:45;;;;;;;0.30;0.30;;;;;;;4.32;74.14;94863.28;5049846;28;20271;-75
2022/12/14 12:44:47;;;;;;;0.20;0.20;;;;;;;4.32;80.92;94865.94;5049500;28;20040;-74
2022/12/14 12:47:40;;;;;;;0.30;0.30;;;;;;;4.07;83.01;94864.59;5052669;28;20053;-75
2022/12/14 12:50:31;;;;;;;0.20;0.20;;;;;;;4.13;84.33;94870.75;5051824;28;20321;-75
2022/12/14 12:54:03;;;;;;;0.20;0.20;;;;;;;4.10;80.61;94865.94;5053770;28;20516;-74
2022/12/14 12:56:51;;;;;;;;;;;;;;;4.10;76.61;94873.88;5039152;28;20389;-74
2022/12/14 12:59:56;;;;;;;0.10;0.10;;;;;;;4.06;85.32;94878.88;5052196;28;20477;-72
2022/12/14 13:02:46;;;;;;;0.17;0.17;;;;;;;4.05;84.53;94876.47;4698429;28;9999643;-72
2022/12/14 13:05:38;;;;;;;0.20;0.20;;;;;;;3.34;86.97;94879.69;5053332;28;20491;-74
2022/12/14 13:08:45;;;;;;;0.20;0.20;;;;;;;2.91;93.81;94874.25;5055281;28;20044;-74
2022/12/14 13:11:37;;;;;;;0.20;0.20;;;;;;;1.91;100.00;94873.72;5041342;28;20032;-74
2022/12/14 13:14:34;;;;;;;0.20;0.20;;;;;;;1.66;100.00;94874.00;5054151;28;20123;-74
2022/12/14 13:17:36;;;;;;;0.10;0.10;;;;;;;1.92;100.00;94877.97;5054285;28;20044;-74
2022/12/14 13:20:33;;;;;;;0.20;0.20;;;;;;;1.76;100.00;94881.31;5020815;28;20769;-74
2022/12/14 13:23:27;;;;;;;0.20;0.20;;;;;;;1.29;100.00;94865.53;5038106;28;20480;-72
2022/12/14 13:26:46;;;;;;;0.10;0.10;;;;;;;1.26;100.00;94879.16;5052885;28;20148;-73
2022/12/14 13:30:03;;;;;;;0.20;0.20;;;;;;;0.83;100.00;94892.59;5054158;28;20291;-73
2022/12/14 13:33:07;;;;;;;0.20;0.20;;;;;;;1.34;100.00;94894.63;5051861;28;20041;-73
2022/12/14 13:36:13;;;;;;;0.20;0.20;;;;;;;1.51;100.00;94893.94;5053616;28;20024;-71
2022/12/14 13:39:15;;;;;;;0.15;0.15;;;;;;;1.72;100.00;94890.72;5052701;28;20157;-73